Time;durP1;ratioP1;P1;durP2;ratioP2;P2;SDS_P1;SDS_P2;PMS_P1;PMS_P2;Temp;Humidity;BMP_temperature;BMP_pressure;BME280_temperature;BME280_humidity;BME280_pressure;Samples;Min_cycle;Max_cycle;Signal;HPM_P1;HPM_P2
2023/08/28 00:02:13;;;;;;;4.00;2.17;;;16.00;99.90;;;;;;5046469;28;20213;-68
2023/08/28 00:04:38;;;;;;;1.90;1.80;;;16.10;99.90;;;;;;5046282;28;20177;-70
2023/08/28 00:07:04;;;;;;;2.80;2.50;;;16.00;99.90;;;;;;5044529;28;20289;-69
2023/08/28 00:09:30;;;;;;;2.33;2.13;;;16.00;99.90;;;;;;5047053;28;20268;-67
2023/08/28 00:11:55;;;;;;;2.27;2.07;;;16.10;99.90;;;;;;5044681;28;20240;-69
2023/08/28 00:14:23;;;;;;;2.20;2.00;;;16.70;99.90;;;;;;5043021;28;20787;-70
2023/08/28 00:16:48;;;;;;;2.20;2.10;;;16.30;99.90;;;;;;5043605;28;20228;-72
2023/08/28 00:19:14;;;;;;;3.70;2.00;;;16.20;99.90;;;;;;5043903;28;20293;-70
2023/08/28 00:21:40;;;;;;;2.50;2.30;;;16.10;99.90;;;;;;5042542;28;20211;-71
2023/08/28 00:24:06;;;;;;;2.27;2.07;;;16.30;99.90;;;;;;5043666;28;20184;-70
2023/08/28 00:26:32;;;;;;;2.77;2.00;;;16.40;99.90;;;;;;5044162;28;21010;-70
2023/08/28 00:28:57;;;;;;;3.27;2.10;;;16.30;99.90;;;;;;5044655;28;20487;-71
2023/08/28 00:31:23;;;;;;;2.10;2.00;;;16.30;99.90;;;;;;5040076;28;20769;-68
2023/08/28 00:33:49;;;;;;;2.60;2.13;;;16.20;99.90;;;;;;5044637;28;20212;-68
2023/08/28 00:36:15;;;;;;;2.27;1.80;;;16.20;99.90;;;;;;5043420;28;20178;-69
2023/08/28 00:38:41;;;;;;;1.95;1.80;;;16.20;99.90;;;;;;5042824;28;20206;-69
2023/08/28 00:41:07;;;;;;;3.50;2.05;;;16.40;99.90;;;;;;5042841;28;20255;-69
2023/08/28 00:43:33;;;;;;;2.97;2.20;;;15.80;99.90;;;;;;5045343;28;20225;-68
2023/08/28 00:46:00;;;;;;;3.00;2.00;;;16.10;99.90;;;;;;5044630;28;20856;-71
2023/08/28 00:48:27;;;;;;;3.78;1.80;;;16.00;99.90;;;;;;5045773;28;20235;-69
2023/08/28 00:50:53;;;;;;;2.45;2.25;;;16.20;99.90;;;;;;5042161;28;20231;-68
2023/08/28 00:53:19;;;;;;;1.90;1.80;;;16.00;99.90;;;;;;5042158;28;20209;-68
2023/08/28 00:55:45;;;;;;;2.10;2.00;;;15.90;99.90;;;;;;5044754;28;20185;-68
2023/08/28 00:58:12;;;;;;;3.90;2.00;;;16.00;99.90;;;;;;5043912;28;20694;-68
2023/08/28 01:00:37;;;;;;;2.30;2.10;;;15.90;99.90;;;;;;5044100;28;21032;-69
2023/08/28 01:03:04;;;;;;;3.83;2.23;;;16.10;99.90;;;;;;5042031;28;20284;-69
2023/08/28 01:05:39;;;;;;;3.60;2.28;;;16.10;99.90;;;;;;5045889;28;20634;-68
2023/08/28 01:08:29;;;;;;;2.50;2.22;;;16.00;99.90;;;;;;5043847;28;20254;-68
2023/08/28 01:11:00;;;;;;;2.13;2.03;;;16.00;99.90;;;;;;5039377;28;20217;-67
2023/08/28 01:13:36;;;;;;;2.40;2.20;;;16.10;99.90;;;;;;5044391;28;20213;-68
2023/08/28 01:16:03;;;;;;;2.05;1.85;;;16.00;99.90;;;;;;5041995;28;20185;-68
2023/08/28 01:18:30;;;;;;;2.53;2.28;;;16.20;99.90;;;;;;5041858;28;20181;-68
2023/08/28 01:20:57;;;;;;;2.75;2.00;;;16.20;99.90;;;;;;5042739;28;20177;-68
2023/08/28 01:23:38;;;;;;;4.20;1.70;;;16.10;99.90;;;;;;5042344;28;20182;-68
2023/08/28 01:26:04;;;;;;;2.38;1.80;;;16.30;99.90;;;;;;5042611;28;20190;-68
2023/08/28 01:28:30;;;;;;;5.32;2.20;;;16.20;99.90;;;;;;5045258;28;21706;-68
2023/08/28 01:30:55;;;;;;;2.37;2.17;;;16.20;99.90;;;;;;5044764;28;20192;-68
2023/08/28 01:33:21;;;;;;;3.07;2.10;;;16.20;99.90;;;;;;5043537;28;20536;-68
2023/08/28 01:36:01;;;;;;;2.23;1.73;;;16.10;99.90;;;;;;5041847;28;20281;-67
2023/08/28 01:38:33;;;;;;;5.88;2.50;;;16.10;99.90;;;;;;5045214;28;20193;-67
2023/08/28 01:41:09;;;;;;;2.35;2.05;;;16.00;99.90;;;;;;5044292;28;20498;-67
2023/08/28 01:43:37;;;;;;;4.13;2.30;;;16.00;99.90;;;;;;5048084;28;20679;-67
2023/08/28 01:46:04;;;;;;;4.43;2.10;;;15.90;99.90;;;;;;5049983;28;20228;-66
2023/08/28 01:48:31;;;;;;;3.30;2.55;;;16.00;99.90;;;;;;5047740;28;20532;-67
2023/08/28 01:50:57;;;;;;;2.13;1.92;;;16.00;99.90;;;;;;5045693;28;20186;-68
2023/08/28 01:53:23;;;;;;;4.13;2.13;;;16.10;99.90;;;;;;5049092;28;20197;-68
2023/08/28 01:56:01;;;;;;;2.22;2.10;;;15.90;99.90;;;;;;5046409;28;20182;-68
2023/08/28 01:58:27;;;;;;;2.47;2.28;;;16.00;99.90;;;;;;5053323;28;20185;-68
2023/08/28 02:00:53;;;;;;;2.00;1.90;;;15.90;99.90;;;;;;5048297;28;20213;-68
2023/08/28 02:03:18;;;;;;;2.60;2.13;;;15.80;99.90;;;;;;5048159;28;20213;-68
2023/08/28 02:05:44;;;;;;;3.70;2.33;;;15.60;99.90;;;;;;5046878;28;20177;-68
2023/08/28 02:08:09;;;;;;;3.00;2.07;;;15.70;99.90;;;;;;5047284;28;20571;-68
2023/08/28 02:10:35;;;;;;;3.80;2.10;;;15.90;99.90;;;;;;5045879;28;20235;-68
2023/08/28 02:13:00;;;;;;;6.80;4.13;;;15.80;99.90;;;;;;5046798;28;20736;-69
2023/08/28 02:15:26;;;;;;;2.67;2.20;;;15.70;99.90;;;;;;5048427;28;20251;-68
2023/08/28 02:17:52;;;;;;;2.40;2.20;;;15.40;99.90;;;;;;5044458;28;20232;-68
2023/08/28 02:20:18;;;;;;;5.00;2.43;;;15.50;99.90;;;;;;5046042;28;20444;-69
2023/08/28 02:22:43;;;;;;;3.40;2.03;;;15.50;99.90;;;;;;5047687;28;20182;-69
2023/08/28 02:25:09;;;;;;;2.67;2.20;;;15.30;99.90;;;;;;5045976;28;20227;-68
2023/08/28 02:27:35;;;;;;;3.40;2.17;;;15.00;99.90;;;;;;5044362;28;20537;-69
2023/08/28 02:30:00;;;;;;;2.57;2.37;;;15.60;99.90;;;;;;5046378;28;20220;-68
2023/08/28 02:32:26;;;;;;;1.90;1.80;;;15.40;99.90;;;;;;5046640;28;20758;-68
2023/08/28 02:34:51;;;;;;;3.57;2.17;;;15.80;99.90;;;;;;5047544;28;20182;-68
2023/08/28 02:37:17;;;;;;;2.90;1.80;;;15.80;99.90;;;;;;5045000;28;20702;-68
2023/08/28 02:39:43;;;;;;;4.60;2.10;;;15.90;99.90;;;;;;5048246;28;20227;-68
2023/08/28 02:42:08;;;;;;;3.08;1.98;;;15.60;99.90;;;;;;5046370;28;20235;-69
2023/08/28 02:44:34;;;;;;;4.07;2.07;;;15.80;99.90;;;;;;5046233;28;20265;-69
2023/08/28 02:47:00;;;;;;;2.67;2.10;;;15.50;99.90;;;;;;5045599;28;20300;-69
2023/08/28 02:49:25;;;;;;;2.60;1.87;;;15.60;99.90;;;;;;5047456;28;20182;-69
2023/08/28 02:51:51;;;;;;;6.23;4.70;;;15.40;99.90;;;;;;5047346;28;20265;-68
2023/08/28 02:54:16;;;;;;;2.40;2.20;;;15.60;99.90;;;;;;5043301;28;20218;-68
2023/08/28 02:56:42;;;;;;;2.77;2.03;;;15.40;99.90;;;;;;5041686;28;20205;-68
2023/08/28 02:59:08;;;;;;;2.93;2.10;;;15.40;99.90;;;;;;5047711;28;20647;-68
2023/08/28 03:01:37;;;;;;;3.80;1.88;;;15.60;99.90;;;;;;5047033;28;20781;-68
2023/08/28 03:04:07;;;;;;;3.30;2.20;;;15.50;99.90;;;;;;5044980;28;20236;-68
2023/08/28 03:06:38;;;;;;;3.65;2.10;;;15.60;99.90;;;;;;5043264;28;20205;-68
2023/08/28 03:09:07;;;;;;;2.00;1.90;;;15.40;99.90;;;;;;5055158;28;20192;-68
2023/08/28 03:11:33;;;;;;;3.17;1.80;;;15.10;99.90;;;;;;5046275;28;20211;-69
2023/08/28 03:13:59;;;;;;;2.85;2.60;;;15.50;99.90;;;;;;5046606;28;20216;-68
2023/08/28 03:16:25;;;;;;;3.10;2.10;;;15.60;99.90;;;;;;5052535;28;20209;-68
2023/08/28 03:18:50;;;;;;;1.87;1.70;;;15.30;99.90;;;;;;5045523;28;20189;-68
2023/08/28 03:21:16;;;;;;;2.30;2.10;;;15.60;99.90;;;;;;5047203;28;20188;-68
2023/08/28 03:23:42;;;;;;;2.60;2.40;;;15.60;99.90;;;;;;5047233;28;20543;-68
2023/08/28 03:26:07;;;;;;;2.33;1.80;;;15.80;99.90;;;;;;5045392;28;20187;-68
2023/08/28 03:28:33;;;;;;;3.10;2.30;;;15.50;99.90;;;;;;5046247;28;20227;-68
2023/08/28 03:31:00;;;;;;;2.40;2.03;;;15.70;99.90;;;;;;5046576;28;20238;-68
2023/08/28 03:33:26;;;;;;;7.07;2.70;;;15.30;99.90;;;;;;5047026;28;20231;-69
2023/08/28 03:35:52;;;;;;;2.55;2.35;;;15.40;99.90;;;;;;5046438;28;20189;-68
2023/08/28 03:38:18;;;;;;;2.93;2.37;;;15.30;99.90;;;;;;5045086;28;20205;-68
2023/08/28 03:40:44;;;;;;;2.57;2.20;;;15.40;99.90;;;;;;5043870;28;20178;-68
2023/08/28 03:43:11;;;;;;;2.80;2.15;;;15.40;99.90;;;;;;5046292;28;20450;-68
2023/08/28 03:45:37;;;;;;;2.42;2.20;;;15.30;99.90;;;;;;5047697;28;20190;-68
2023/08/28 03:48:03;;;;;;;3.53;2.00;;;15.40;99.90;;;;;;5046335;28;20213;-68
2023/08/28 03:50:30;;;;;;;4.60;2.10;;;15.40;99.90;;;;;;5046872;28;20186;-68
2023/08/28 03:53:00;;;;;;;2.13;2.03;;;15.50;99.90;;;;;;5043856;28;20288;-69
2023/08/28 03:55:32;;;;;;;4.00;2.40;;;15.60;99.90;;;;;;5046146;28;20546;-68
2023/08/28 03:58:00;;;;;;;2.50;2.30;;;15.60;99.90;;;;;;5046263;28;20200;-68
2023/08/28 04:00:25;;;;;;;2.47;2.25;;;15.60;99.90;;;;;;5042151;28;20272;-68
2023/08/28 04:02:51;;;;;;;2.60;2.33;;;15.60;99.90;;;;;;5043634;28;20189;-67
2023/08/28 04:05:18;;;;;;;2.88;2.58;;;15.80;99.90;;;;;;5043595;28;20216;-67
2023/08/28 04:07:44;;;;;;;3.10;2.70;;;15.30;99.90;;;;;;5045996;28;20284;-67
2023/08/28 04:10:12;;;;;;;4.93;2.10;;;15.70;99.90;;;;;;5044327;28;20280;-67
2023/08/28 04:12:39;;;;;;;3.00;1.80;;;15.70;99.90;;;;;;5045589;28;20288;-67
2023/08/28 04:15:08;;;;;;;2.55;2.35;;;15.90;99.90;;;;;;5046822;28;20177;-67
2023/08/28 04:17:34;;;;;;;2.78;2.45;;;15.70;99.90;;;;;;5039164;28;20200;-68
2023/08/28 04:20:12;;;;;;;3.60;2.55;;;15.50;99.90;;;;;;5043928;28;20235;-69
2023/08/28 04:22:44;;;;;;;3.40;1.90;;;15.60;99.90;;;;;;5045827;28;20185;-69
2023/08/28 04:25:11;;;;;;;2.55;2.35;;;15.80;99.90;;;;;;5041981;28;20190;-68
2023/08/28 04:27:38;;;;;;;2.40;2.22;;;15.70;99.90;;;;;;5043534;28;20201;-69
2023/08/28 04:30:05;;;;;;;2.25;2.08;;;15.80;99.90;;;;;;5044769;28;20239;-69
2023/08/28 04:32:31;;;;;;;2.65;2.45;;;15.80;99.90;;;;;;5043191;28;20762;-69
2023/08/28 04:34:56;;;;;;;2.13;2.00;;;15.80;99.90;;;;;;5045130;28;20260;-69
2023/08/28 04:37:24;;;;;;;4.07;2.67;;;15.90;99.90;;;;;;5041130;28;20205;-68
2023/08/28 04:39:49;;;;;;;3.17;2.08;;;16.10;99.90;;;;;;5044573;28;20185;-69
2023/08/28 04:42:15;;;;;;;6.13;3.30;;;16.10;99.90;;;;;;5044309;28;20595;-69
2023/08/28 04:44:41;;;;;;;2.50;2.30;;;15.50;99.90;;;;;;5044103;28;20180;-69
2023/08/28 04:47:07;;;;;;;2.40;2.00;;;15.90;99.90;;;;;;5044554;28;20315;-68
2023/08/28 04:49:33;;;;;;;4.63;2.30;;;16.00;99.90;;;;;;5041258;28;20439;-68
2023/08/28 04:51:58;;;;;;;2.67;2.47;;;16.10;99.90;;;;;;5043061;28;20288;-67
2023/08/28 04:54:24;;;;;;;4.27;2.83;;;16.10;99.90;;;;;;5042228;28;20291;-67
2023/08/28 04:56:49;;;;;;;2.90;2.33;;;16.20;99.90;;;;;;5037526;28;20629;-67
2023/08/28 04:59:15;;;;;;;2.50;2.30;;;16.00;99.90;;;;;;5040609;28;20264;-68
2023/08/28 05:01:41;;;;;;;2.73;2.53;;;16.00;99.90;;;;;;5043041;28;20776;-68
2023/08/28 05:04:07;;;;;;;2.87;2.60;;;16.20;99.90;;;;;;5043422;28;20220;-68
2023/08/28 05:06:33;;;;;;;3.05;2.45;;;15.90;99.90;;;;;;5033012;28;20455;-68
2023/08/28 05:08:59;;;;;;;4.53;3.17;;;16.10;99.90;;;;;;5044528;28;20534;-68
2023/08/28 05:11:24;;;;;;;3.90;2.87;;;16.10;99.90;;;;;;5041850;28;20220;-68
2023/08/28 05:13:51;;;;;;;10.23;7.70;;;16.10;99.90;;;;;;5038247;28;20210;-67
2023/08/28 05:16:16;;;;;;;5.50;2.80;;;16.10;99.90;;;;;;5043689;28;20661;-68
2023/08/28 05:18:42;;;;;;;3.50;2.67;;;16.00;99.90;;;;;;5044990;28;20196;-67
2023/08/28 05:21:08;;;;;;;3.57;3.27;;;15.90;99.90;;;;;;5047222;28;20184;-67
2023/08/28 05:23:33;;;;;;;3.50;3.20;;;16.10;99.90;;;;;;5043073;28;20185;-68
2023/08/28 05:25:59;;;;;;;3.13;2.90;;;16.10;99.90;;;;;;5046266;28;20631;-67
2023/08/28 05:28:24;;;;;;;3.33;2.57;;;16.00;99.90;;;;;;5043017;28;20212;-68
2023/08/28 05:30:50;;;;;;;3.20;2.90;;;16.40;99.90;;;;;;5044754;28;20704;-67
2023/08/28 05:33:15;;;;;;;4.83;3.20;;;16.20;99.90;;;;;;5044176;28;20241;-66
2023/08/28 05:35:42;;;;;;;3.93;3.53;;;16.20;99.90;;;;;;5047011;28;20185;-66
2023/08/28 05:38:08;;;;;;;5.35;4.85;;;16.00;99.90;;;;;;5046630;28;20202;-66
2023/08/28 05:40:33;;;;;;;4.70;3.23;;;16.20;99.90;;;;;;5045597;28;20189;-66
2023/08/28 05:42:59;;;;;;;3.37;2.80;;;16.00;99.90;;;;;;5048656;28;20435;-68
2023/08/28 05:45:25;;;;;;;5.05;2.90;;;16.20;99.90;;;;;;5047449;28;20225;-68
2023/08/28 05:47:51;;;;;;;4.63;3.93;;;16.30;99.90;;;;;;5047491;28;20233;-67
2023/08/28 05:50:18;;;;;;;5.00;2.83;;;16.20;99.90;;;;;;5043776;28;20456;-67
2023/08/28 05:52:44;;;;;;;6.68;3.00;;;16.10;99.90;;;;;;5048614;28;20211;-67
2023/08/28 05:55:10;;;;;;;7.28;3.40;;;16.30;99.90;;;;;;5047268;28;20239;-68
2023/08/28 05:57:36;;;;;;;3.57;3.37;;;16.30;99.90;;;;;;5047975;28;20197;-67
2023/08/28 06:00:02;;;;;;;3.13;2.83;;;16.30;99.90;;;;;;5048112;28;20183;-67
2023/08/28 06:02:28;;;;;;;3.65;3.30;;;16.40;99.90;;;;;;5046770;28;20652;-67
2023/08/28 06:04:54;;;;;;;4.33;3.60;;;16.40;99.90;;;;;;5046857;28;20177;-67
2023/08/28 06:07:19;;;;;;;3.47;3.17;;;16.50;99.90;;;;;;5045983;28;20224;-68
2023/08/28 06:09:45;;;;;;;3.90;3.60;;;16.50;99.90;;;;;;5043831;28;20187;-67
2023/08/28 06:12:10;;;;;;;4.10;3.53;;;16.50;99.90;;;;;;5045980;28;20185;-68
2023/08/28 06:14:36;;;;;;;4.00;3.70;;;16.80;99.90;;;;;;5038120;28;20218;-68
2023/08/28 06:17:05;;;;;;;4.80;3.57;;;16.50;99.90;;;;;;5048342;28;20628;-67
2023/08/28 06:19:31;;;;;;;3.92;3.63;;;16.60;99.90;;;;;;5044755;28;20277;-67
2023/08/28 06:21:58;;;;;;;4.53;3.65;;;16.60;99.90;;;;;;5047627;28;20190;-66
2023/08/28 06:24:24;;;;;;;4.82;4.40;;;16.80;99.90;;;;;;5047696;28;20677;-67
2023/08/28 06:26:51;;;;;;;5.00;4.50;;;16.70;99.90;;;;;;5039710;28;20209;-66
2023/08/28 06:29:16;;;;;;;5.50;4.35;;;16.70;99.90;;;;;;5047395;28;20201;-66
2023/08/28 06:31:42;;;;;;;5.73;4.63;;;16.50;99.90;;;;;;5045919;28;20181;-66
2023/08/28 06:34:07;;;;;;;5.17;4.67;;;16.90;99.90;;;;;;5047147;28;20296;-67
2023/08/28 06:36:33;;;;;;;5.40;4.97;;;16.20;99.90;;;;;;5046908;28;20684;-67
2023/08/28 06:38:58;;;;;;;5.60;4.80;;;16.40;99.90;;;;;;5048436;28;20188;-67
2023/08/28 06:41:24;;;;;;;4.47;4.07;;;16.40;99.90;;;;;;5046755;28;20362;-67
2023/08/28 06:43:50;;;;;;;5.47;4.70;;;16.40;99.90;;;;;;5047449;28;20850;-67
2023/08/28 06:46:16;;;;;;;5.03;4.57;;;16.40;99.90;;;;;;5047887;28;20177;-67
2023/08/28 06:48:45;;;;;;;5.90;5.20;;;16.50;99.90;;;;;;5050927;28;20684;-67
2023/08/28 06:51:11;;;;;;;5.60;5.00;;;16.80;99.90;;;;;;5043053;28;20450;-67
2023/08/28 06:53:37;;;;;;;6.47;4.88;;;16.60;99.90;;;;;;5046379;28;20222;-67
2023/08/28 06:56:04;;;;;;;5.57;5.07;;;16.60;99.90;;;;;;5046546;28;20188;-68
2023/08/28 06:58:29;;;;;;;6.28;5.07;;;16.80;99.90;;;;;;5047110;28;20734;-67
2023/08/28 07:00:55;;;;;;;5.30;4.50;;;16.50;99.90;;;;;;5046078;28;20205;-67
2023/08/28 07:03:21;;;;;;;5.10;4.70;;;16.80;99.90;;;;;;5044411;28;20189;-68
2023/08/28 07:05:46;;;;;;;5.70;5.20;;;16.80;99.90;;;;;;5046153;28;20226;-66
2023/08/28 07:08:12;;;;;;;5.23;4.70;;;16.60;99.90;;;;;;5046398;28;20226;-67
2023/08/28 07:10:37;;;;;;;5.50;5.00;;;16.90;99.90;;;;;;5045457;28;20201;-66
2023/08/28 07:13:03;;;;;;;5.00;4.50;;;17.10;99.90;;;;;;5047828;28;20740;-66
2023/08/28 07:15:32;;;;;;;6.00;4.73;;;16.90;99.90;;;;;;5046249;28;20193;-66
2023/08/28 07:17:57;;;;;;;5.40;4.90;;;17.00;99.90;;;;;;5046976;28;20292;-68
2023/08/28 07:20:23;;;;;;;6.60;5.87;;;17.00;99.90;;;;;;5046593;28;20280;-67
2023/08/28 07:22:53;;;;;;;5.47;5.03;;;16.70;99.90;;;;;;5046339;28;20797;-68
2023/08/28 07:25:22;;;;;;;6.80;6.20;;;16.80;99.90;;;;;;5045140;28;20558;-66
2023/08/28 07:27:49;;;;;;;5.80;5.32;;;17.30;99.90;;;;;;5046728;28;20278;-67
2023/08/28 07:30:15;;;;;;;5.63;5.15;;;17.00;99.90;;;;;;5047732;28;20181;-67
2023/08/28 07:32:41;;;;;;;5.20;4.80;;;16.70;99.90;;;;;;5045652;28;20311;-67
2023/08/28 07:35:07;;;;;;;4.87;4.37;;;17.00;99.90;;;;;;5041309;28;20181;-67
2023/08/28 07:37:37;;;;;;;6.15;5.03;;;16.90;99.90;;;;;;5045185;28;20200;-67
2023/08/28 07:40:06;;;;;;;5.43;5.03;;;16.90;99.90;;;;;;5046682;28;20256;-66
2023/08/28 07:42:36;;;;;;;4.97;4.45;;;16.70;99.90;;;;;;5046431;28;20181;-66
2023/08/28 07:45:02;;;;;;;6.10;5.22;;;16.80;99.90;;;;;;5046167;28;20264;-67
2023/08/28 07:47:28;;;;;;;5.07;4.20;;;17.00;99.90;;;;;;5045390;28;20209;-67
2023/08/28 07:49:54;;;;;;;8.57;4.10;;;16.90;99.90;;;;;;5045580;28;20197;-67
2023/08/28 07:52:20;;;;;;;4.00;3.70;;;16.70;99.90;;;;;;5047211;28;20531;-67
2023/08/28 07:54:46;;;;;;;5.60;4.30;;;17.00;99.90;;;;;;5046663;28;20201;-67
2023/08/28 07:57:12;;;;;;;3.80;3.50;;;17.00;99.90;;;;;;5045805;28;20617;-67
2023/08/28 07:59:37;;;;;;;5.63;3.90;;;17.30;99.90;;;;;;5047261;28;21033;-67
2023/08/28 08:02:10;;;;;;;6.03;4.17;;;17.30;99.90;;;;;;5046916;28;20231;-67
2023/08/28 08:04:36;;;;;;;4.47;4.07;;;17.50;99.90;;;;;;5043899;28;20280;-67
2023/08/28 08:07:01;;;;;;;5.37;4.50;;;17.80;99.90;;;;;;5046618;28;20299;-67
2023/08/28 08:09:27;;;;;;;4.40;4.10;;;17.60;99.90;;;;;;5044330;28;20471;-67
2023/08/28 08:11:52;;;;;;;4.83;4.43;;;17.50;99.90;;;;;;5045736;28;20193;-67
2023/08/28 08:14:19;;;;;;;4.67;4.27;;;17.70;99.90;;;;;;5043428;28;20248;-67
2023/08/28 08:16:44;;;;;;;5.72;4.30;;;17.70;99.90;;;;;;5038487;28;20205;-67
2023/08/28 08:19:10;;;;;;;5.50;5.03;;;17.80;99.90;;;;;;5046703;28;20251;-67
2023/08/28 08:21:36;;;;;;;5.90;4.90;;;17.80;99.90;;;;;;5043746;28;20184;-68
2023/08/28 08:24:02;;;;;;;4.63;3.25;;;17.70;99.90;;;;;;5043036;28;20268;-67
2023/08/28 08:26:28;;;;;;;3.20;2.90;;;17.80;99.90;;;;;;5040169;28;20299;-68
2023/08/28 08:28:54;;;;;;;8.15;6.68;;;18.10;99.90;;;;;;5040585;28;20439;-69
2023/08/28 08:31:19;;;;;;;2.90;2.70;;;18.10;99.90;;;;;;5046323;28;20602;-68
2023/08/28 08:33:45;;;;;;;3.67;3.37;;;18.10;99.90;;;;;;5042299;28;20292;-67
2023/08/28 08:36:14;;;;;;;3.00;2.80;;;17.70;99.90;;;;;;5043945;28;20710;-67
2023/08/28 08:38:40;;;;;;;5.40;3.42;;;17.60;99.90;;;;;;5044812;28;20226;-68
2023/08/28 08:41:07;;;;;;;3.20;2.90;;;17.60;99.90;;;;;;5045263;28;20265;-68
2023/08/28 08:43:33;;;;;;;3.38;2.60;;;17.20;99.90;;;;;;5045674;28;20255;-68
2023/08/28 08:46:04;;;;;;;3.37;3.13;;;17.80;99.90;;;;;;5046285;28;20602;-67
2023/08/28 08:48:34;;;;;;;3.50;3.20;;;17.80;99.90;;;;;;5042685;28;20239;-68
2023/08/28 08:51:07;;;;;;;3.85;3.55;;;17.70;99.90;;;;;;5041220;28;20231;-67
2023/08/28 08:53:51;;;;;;;3.88;3.20;;;17.70;99.90;;;;;;5045695;28;20245;-67
2023/08/28 08:56:19;;;;;;;4.80;4.03;;;17.80;99.90;;;;;;5040596;28;20604;-67
2023/08/28 08:58:47;;;;;;;3.10;2.80;;;17.60;99.90;;;;;;5043968;28;20511;-66
2023/08/28 09:01:13;;;;;;;2.42;2.22;;;17.50;99.90;;;;;;5042912;28;20196;-67
2023/08/28 09:03:39;;;;;;;2.87;2.50;;;17.30;99.90;;;;;;5043792;28;20189;-66
2023/08/28 09:06:06;;;;;;;2.83;2.45;;;17.70;99.90;;;;;;5044756;28;20448;-68
2023/08/28 09:08:36;;;;;;;3.03;2.75;;;17.60;99.90;;;;;;5044147;28;20188;-68
2023/08/28 09:11:01;;;;;;;2.53;2.33;;;17.60;99.90;;;;;;5044854;28;20827;-67
2023/08/28 09:13:27;;;;;;;2.50;2.30;;;18.00;99.90;;;;;;5049150;28;20217;-68
2023/08/28 09:15:53;;;;;;;4.83;3.20;;;17.80;99.90;;;;;;5045696;28;20258;-67
2023/08/28 09:18:19;;;;;;;3.33;2.80;;;17.90;99.90;;;;;;5043312;28;20494;-67
2023/08/28 09:21:08;;;;;;;3.05;2.75;;;18.00;99.90;;;;;;5044446;28;20185;-67
2023/08/28 09:23:34;;;;;;;3.03;2.47;;;18.00;99.90;;;;;;5046282;28;20547;-67
2023/08/28 09:26:02;;;;;;;2.67;2.42;;;18.10;99.90;;;;;;5044167;28;20189;-68
2023/08/28 09:28:28;;;;;;;3.15;2.55;;;18.10;99.90;;;;;;5043921;28;20189;-67
2023/08/28 09:30:54;;;;;;;2.43;2.23;;;17.90;99.90;;;;;;5043770;28;20186;-67
2023/08/28 09:33:20;;;;;;;5.90;2.40;;;18.30;99.90;;;;;;5046821;28;21123;-67
2023/08/28 09:35:45;;;;;;;3.77;2.00;;;18.20;99.90;;;;;;5045428;28;20185;-67
2023/08/28 09:38:12;;;;;;;2.47;2.27;;;18.00;99.90;;;;;;5043738;28;21002;-66
2023/08/28 09:40:40;;;;;;;2.50;2.20;;;18.10;99.90;;;;;;5044444;28;20268;-67
2023/08/28 09:43:13;;;;;;;2.60;2.40;;;18.50;99.90;;;;;;5040880;28;20177;-69
2023/08/28 09:45:40;;;;;;;2.67;2.25;;;18.40;99.90;;;;;;5044801;28;20181;-67
2023/08/28 09:48:07;;;;;;;2.65;2.45;;;18.20;99.90;;;;;;5044041;28;20208;-69
2023/08/28 09:50:34;;;;;;;3.20;2.28;;;18.40;99.90;;;;;;5038001;28;20555;-67
2023/08/28 09:53:11;;;;;;;3.65;2.40;;;18.10;99.90;;;;;;5044921;28;20212;-68
2023/08/28 09:55:50;;;;;;;3.10;2.17;;;18.00;99.90;;;;;;5040780;28;20177;-68
2023/08/28 09:58:17;;;;;;;4.28;2.65;;;18.20;99.90;;;;;;5044421;28;20226;-67
2023/08/28 10:00:43;;;;;;;2.55;2.35;;;18.50;99.90;;;;;;5045020;28;20593;-67
2023/08/28 10:03:13;;;;;;;2.63;2.23;;;18.80;99.90;;;;;;5048517;28;20185;-68
2023/08/28 10:05:40;;;;;;;4.60;2.20;;;19.30;99.90;;;;;;5047508;28;20677;-67
2023/08/28 10:08:07;;;;;;;2.10;1.90;;;20.10;99.90;;;;;;5043870;28;20213;-67
2023/08/28 10:10:34;;;;;;;2.38;2.13;;;20.10;99.20;;;;;;5046024;28;20232;-67
2023/08/28 10:13:03;;;;;;;2.42;2.22;;;19.60;99.20;;;;;;5046553;28;20239;-68
2023/08/28 10:15:31;;;;;;;3.75;3.45;;;19.60;99.90;;;;;;5049209;28;20235;-69
2023/08/28 10:18:04;;;;;;;2.42;2.22;;;19.60;99.90;;;;;;5047226;28;20205;-67
2023/08/28 10:20:30;;;;;;;3.65;2.08;;;20.10;98.70;;;;;;5044002;28;20210;-68
2023/08/28 10:22:57;;;;;;;1.73;1.63;;;20.10;98.10;;;;;;5047001;28;20181;-67
2023/08/28 10:25:25;;;;;;;3.65;1.80;;;20.30;98.10;;;;;;5046389;28;20215;-68
2023/08/28 10:27:53;;;;;;;4.07;3.08;;;20.50;97.60;;;;;;5047357;28;20296;-67
2023/08/28 10:30:21;;;;;;;1.90;1.80;;;20.60;97.30;;;;;;5048199;28;20189;-68
2023/08/28 10:32:49;;;;;;;1.83;1.73;;;20.80;96.20;;;;;;5045997;28;20469;-67
2023/08/28 10:35:16;;;;;;;2.38;2.10;;;20.90;95.90;;;;;;5046187;28;20193;-67
2023/08/28 10:37:43;;;;;;;1.92;1.75;;;20.80;96.00;;;;;;5048174;28;21119;-67
2023/08/28 10:40:11;;;;;;;1.90;1.80;;;20.60;96.50;;;;;;5044894;28;20331;-67
2023/08/28 10:42:38;;;;;;;2.42;2.20;;;20.60;96.60;;;;;;5047404;28;20189;-67
2023/08/28 10:45:04;;;;;;;2.50;2.30;;;20.60;96.50;;;;;;5046712;28;20209;-68
2023/08/28 10:47:30;;;;;;;2.20;2.00;;;20.00;96.50;;;;;;5047849;28;21234;-68
2023/08/28 10:49:56;;;;;;;2.20;2.00;;;19.90;97.30;;;;;;5044680;28;20185;-66
2023/08/28 10:52:23;;;;;;;2.97;2.77;;;19.90;97.50;;;;;;5048722;28;20900;-68
2023/08/28 10:54:50;;;;;;;2.25;2.05;;;19.90;97.50;;;;;;5047622;28;20459;-67
2023/08/28 10:57:26;;;;;;;1.83;1.73;;;19.80;98.30;;;;;;5044982;28;20701;-66
2023/08/28 10:59:53;;;;;;;1.92;1.73;;;19.70;97.70;;;;;;5047814;28;20180;-68
2023/08/28 11:02:20;;;;;;;1.95;1.85;;;19.80;97.60;;;;;;5048179;28;20193;-69
2023/08/28 11:04:46;;;;;;;2.60;2.40;;;19.70;98.00;;;;;;5045907;28;20190;-68
2023/08/28 11:07:30;;;;;;;2.78;1.70;;;19.80;97.80;;;;;;5047109;28;20586;-67
2023/08/28 11:10:19;;;;;;;2.40;2.20;;;20.20;96.40;;;;;;5048071;28;20173;-68
2023/08/28 11:12:59;;;;;;;3.30;2.20;;;20.30;96.10;;;;;;5046615;28;20666;-68
2023/08/28 11:15:29;;;;;;;1.80;1.70;;;20.20;96.30;;;;;;5043385;28;20220;-68
2023/08/28 11:18:13;;;;;;;1.67;1.58;;;20.10;96.60;;;;;;5047297;28;20197;-68
2023/08/28 11:20:38;;;;;;;2.90;2.10;;;20.10;96.60;;;;;;5048021;28;20247;-68
2023/08/28 11:23:04;;;;;;;1.90;1.80;;;19.70;96.30;;;;;;5046960;28;20189;-68
2023/08/28 11:25:42;;;;;;;2.00;1.90;;;19.80;96.60;;;;;;5043632;28;20201;-68
2023/08/28 11:28:32;;;;;;;1.40;1.30;;;19.90;96.80;;;;;;5054892;28;20210;-67
2023/08/28 11:31:03;;;;;;;2.83;2.08;;;19.70;97.00;;;;;;5062099;28;20689;-67
2023/08/28 11:33:39;;;;;;;2.10;1.60;;;19.70;97.30;;;;;;5046999;28;20233;-69
2023/08/28 11:36:05;;;;;;;2.25;2.05;;;19.60;97.40;;;;;;5044349;28;20173;-68
2023/08/28 11:38:31;;;;;;;4.22;1.92;;;19.40;97.50;;;;;;5045312;28;20186;-69
2023/08/28 11:41:04;;;;;;;5.93;2.90;;;19.40;98.10;;;;;;5045960;28;20252;-69
2023/08/28 11:43:34;;;;;;;3.78;3.05;;;19.50;97.80;;;;;;5047393;28;20513;-68
2023/08/28 11:46:00;;;;;;;2.50;2.30;;;19.80;98.00;;;;;;5047271;28;20221;-68
2023/08/28 11:48:26;;;;;;;4.90;2.10;;;20.00;97.70;;;;;;5045209;28;20237;-67
2023/08/28 11:51:00;;;;;;;2.00;1.90;;;20.00;97.00;;;;;;5045372;28;20245;-67
2023/08/28 11:53:42;;;;;;;4.05;1.80;;;20.00;97.20;;;;;;5047141;28;20223;-67
2023/08/28 11:56:12;;;;;;;1.77;1.67;;;19.90;97.20;;;;;;5043486;28;20186;-68
2023/08/28 11:58:39;;;;;;;2.75;2.50;;;19.60;97.50;;;;;;5044379;28;20323;-67
2023/08/28 12:01:12;;;;;;;1.92;1.70;;;19.70;97.60;;;;;;5045151;28;20758;-67
2023/08/28 12:03:38;;;;;;;2.75;1.60;;;20.40;97.80;;;;;;5044044;28;20192;-68
2023/08/28 12:06:08;;;;;;;2.45;2.08;;;19.80;97.70;;;;;;5044414;28;20190;-67
2023/08/28 12:08:39;;;;;;;2.55;2.33;;;19.80;97.50;;;;;;5046486;28;20252;-67
2023/08/28 12:11:07;;;;;;;2.10;2.00;;;19.90;97.60;;;;;;5045477;28;20211;-69
2023/08/28 12:13:33;;;;;;;1.83;1.73;;;20.00;97.00;;;;;;5045307;28;20663;-68
2023/08/28 12:16:17;;;;;;;3.28;2.25;;;19.80;97.00;;;;;;5044469;28;20208;-68
2023/08/28 12:18:46;;;;;;;1.80;1.70;;;19.50;97.00;;;;;;5045371;28;20178;-68
2023/08/28 12:21:12;;;;;;;2.35;1.65;;;19.50;97.30;;;;;;5045628;28;20208;-67
2023/08/28 12:23:49;;;;;;;2.30;1.90;;;19.60;97.10;;;;;;5044813;28;20205;-68
2023/08/28 12:26:20;;;;;;;2.03;1.80;;;19.70;97.00;;;;;;5043374;28;20436;-67
2023/08/28 12:28:46;;;;;;;2.53;2.00;;;19.70;97.00;;;;;;5045840;28;20268;-67
2023/08/28 12:31:12;;;;;;;2.28;2.15;;;19.50;97.40;;;;;;5045184;28;20312;-68
2023/08/28 12:33:42;;;;;;;3.35;1.30;;;19.50;97.70;;;;;;5045196;28;20201;-67
2023/08/28 12:36:08;;;;;;;3.33;2.35;;;19.50;97.50;;;;;;5042339;28;20177;-68
2023/08/28 12:38:48;;;;;;;1.90;1.70;;;19.50;98.00;;;;;;5045869;28;20242;-68
2023/08/28 12:41:15;;;;;;;3.25;1.90;;;19.40;97.40;;;;;;5042249;28;20435;-68
2023/08/28 12:43:41;;;;;;;2.22;2.00;;;19.10;97.60;;;;;;5045094;28;20532;-68
2023/08/28 12:46:07;;;;;;;1.80;1.70;;;18.90;98.20;;;;;;5046824;28;20247;-68
2023/08/28 12:48:32;;;;;;;1.50;1.40;;;19.00;98.80;;;;;;5044461;28;20201;-66
2023/08/28 12:50:58;;;;;;;1.87;1.77;;;19.10;98.40;;;;;;5041624;28;20568;-68